createdAt,value
2023-05-22T00:00:43.956Z,358.00
2023-05-22T00:01:44.417Z,358.00
2023-05-22T00:02:45.011Z,350.90
2023-05-22T00:03:45.274Z,350.90
2023-05-22T00:04:45.783Z,365.23
2023-05-22T00:05:46.159Z,365.23
2023-05-22T00:06:46.615Z,365.23
2023-05-22T00:07:47.066Z,358.00
2023-05-22T00:08:47.485Z,372.59
2023-05-22T00:09:47.918Z,365.23
2023-05-22T00:10:48.366Z,358.00
2023-05-22T00:11:48.826Z,358.00
2023-05-22T00:12:49.253Z,350.90
2023-05-22T00:13:49.689Z,365.23
2023-05-22T00:14:50.132Z,365.23
2023-05-22T00:15:50.574Z,350.90
2023-05-22T00:16:51.071Z,358.00
2023-05-22T00:17:51.526Z,358.00
2023-05-22T00:18:51.932Z,365.23
2023-05-22T00:19:52.343Z,358.00
2023-05-22T00:20:52.772Z,365.23
2023-05-22T00:21:53.228Z,350.90
2023-05-22T00:22:53.659Z,350.90
2023-05-22T00:23:54.098Z,365.23
2023-05-22T00:24:54.538Z,350.90
2023-05-22T00:25:54.981Z,358.00
2023-05-22T00:26:55.434Z,358.00
2023-05-22T00:27:55.881Z,350.90
2023-05-22T00:28:56.303Z,350.90
2023-05-22T00:29:56.751Z,350.90
2023-05-22T00:30:57.207Z,358.00
2023-05-22T00:31:57.643Z,365.23
2023-05-22T00:32:58.090Z,365.23
2023-05-22T00:33:58.552Z,350.90
2023-05-22T00:34:58.948Z,365.23
2023-05-22T00:35:59.394Z,343.92
2023-05-22T00:36:59.836Z,358.00
2023-05-22T00:38:00.272Z,350.90
2023-05-22T00:39:00.710Z,358.00
2023-05-22T00:40:01.216Z,358.00
2023-05-22T00:41:01.598Z,350.90
2023-05-22T00:42:02.053Z,350.90
2023-05-22T00:43:02.478Z,358.00
2023-05-22T00:44:02.929Z,358.00
2023-05-22T00:45:03.358Z,343.92
2023-05-22T00:46:03.816Z,350.90
2023-05-22T00:47:04.251Z,365.23
2023-05-22T00:48:04.739Z,350.90
2023-05-22T00:49:05.128Z,365.23
2023-05-22T00:50:05.572Z,365.23
2023-05-22T00:51:06.005Z,365.23
2023-05-22T00:52:07.249Z,358.00
2023-05-22T00:53:06.885Z,358.00
2023-05-22T00:54:07.371Z,358.00
2023-05-22T00:55:07.767Z,358.00
2023-05-22T00:56:08.219Z,358.00
2023-05-22T00:57:08.659Z,358.00
2023-05-22T00:58:09.084Z,358.00
2023-05-22T00:59:09.545Z,358.00
2023-05-22T01:00:09.965Z,365.23
2023-05-22T01:01:10.407Z,350.90
2023-05-22T01:02:10.967Z,365.23
2023-05-22T01:03:11.345Z,358.00
2023-05-22T01:04:11.764Z,372.59
2023-05-22T01:05:12.221Z,358.00
2023-05-22T01:06:12.634Z,365.23
2023-05-22T01:07:13.064Z,365.23
2023-05-22T01:08:13.498Z,365.23
2023-05-22T01:09:13.928Z,365.23
2023-05-22T01:10:14.373Z,380.09
2023-05-22T01:11:14.807Z,372.59
2023-05-22T01:12:15.268Z,350.90
2023-05-22T01:13:15.702Z,372.59
2023-05-22T01:14:16.130Z,365.23
2023-05-22T01:15:16.573Z,365.23
2023-05-22T01:16:17.033Z,358.00
2023-05-22T01:17:17.480Z,372.59
2023-05-22T01:18:17.895Z,372.59
2023-05-22T01:19:18.403Z,365.23
2023-05-22T01:20:18.817Z,380.09
2023-05-22T01:21:19.217Z,365.23
2023-05-22T01:22:19.689Z,365.23
2023-05-22T01:23:20.093Z,365.23
2023-05-22T01:24:20.541Z,358.00
2023-05-22T01:25:20.970Z,365.23
2023-05-22T01:26:21.417Z,358.00
2023-05-22T01:27:21.880Z,365.23
2023-05-22T01:28:22.298Z,365.23
2023-05-22T01:29:22.762Z,350.90
2023-05-22T01:30:23.176Z,365.23
2023-05-22T01:31:23.613Z,350.90
2023-05-22T01:32:24.124Z,343.92
2023-05-22T01:33:24.560Z,350.90
2023-05-22T01:34:24.935Z,350.90
2023-05-22T01:35:25.380Z,350.90
2023-05-22T01:36:25.822Z,350.90
2023-05-22T01:37:26.276Z,350.90
2023-05-22T01:38:26.695Z,343.92
2023-05-22T01:39:27.131Z,343.92
2023-05-22T01:40:27.576Z,350.90
2023-05-22T01:41:28.024Z,350.90
2023-05-22T01:42:28.474Z,350.90
2023-05-22T01:43:28.898Z,358.00
2023-05-22T01:44:29.349Z,350.90
2023-05-22T01:45:29.827Z,358.00
2023-05-22T01:46:30.245Z,365.23
2023-05-22T01:47:30.709Z,358.00
2023-05-22T01:48:31.100Z,350.90
2023-05-22T01:49:31.538Z,358.00
2023-05-22T01:50:31.985Z,350.90
2023-05-22T01:51:32.426Z,343.92
2023-05-22T01:52:32.883Z,350.90
2023-05-22T01:53:33.295Z,358.00
2023-05-22T01:54:33.739Z,350.90
2023-05-22T01:55:34.172Z,343.92
2023-05-22T01:56:34.666Z,350.90
2023-05-22T01:57:35.076Z,350.90
2023-05-22T01:58:35.503Z,350.90
2023-05-22T01:59:35.934Z,343.92
2023-05-22T02:00:36.449Z,358.00
2023-05-22T02:01:36.871Z,358.00
2023-05-22T02:02:37.373Z,350.90
2023-05-22T02:03:37.810Z,358.00
2023-05-22T02:04:38.130Z,350.90
2023-05-22T02:05:38.575Z,350.90
2023-05-22T02:06:39.010Z,350.90
2023-05-22T02:07:39.474Z,350.90
2023-05-22T02:08:39.891Z,350.90
2023-05-22T02:09:40.339Z,350.90
2023-05-22T02:10:40.995Z,350.90
2023-05-22T02:11:41.214Z,365.23
2023-05-22T02:12:41.677Z,358.00
2023-05-22T02:13:42.087Z,365.23
2023-05-22T02:14:42.534Z,365.23
2023-05-22T02:15:42.994Z,350.90
2023-05-22T02:16:43.413Z,358.00
2023-05-22T02:17:43.911Z,350.90
2023-05-22T02:18:44.332Z,350.90
2023-05-22T02:19:44.723Z,358.00
2023-05-22T02:20:45.170Z,358.00
2023-05-22T02:21:45.605Z,365.23
2023-05-22T02:22:46.089Z,372.59
2023-05-22T02:23:46.485Z,358.00
2023-05-22T02:24:46.924Z,350.90
2023-05-22T02:25:47.362Z,365.23
2023-05-22T02:26:47.818Z,358.00
2023-05-22T02:27:48.264Z,358.00
2023-05-22T02:28:48.686Z,365.23
2023-05-22T02:29:49.122Z,358.00
2023-05-22T02:30:49.598Z,350.90
2023-05-22T02:31:50.037Z,358.00
2023-05-22T02:32:50.495Z,358.00
2023-05-22T02:33:50.885Z,365.23
2023-05-22T02:34:52.874Z,372.59
2023-05-22T02:35:51.758Z,395.50
2023-05-22T02:36:52.203Z,380.09
2023-05-22T02:37:52.666Z,380.09
2023-05-22T02:38:53.078Z,365.23
2023-05-22T02:39:53.517Z,365.23
2023-05-22T02:40:53.961Z,372.59
2023-05-22T02:41:54.407Z,365.23
2023-05-22T02:42:54.860Z,380.09
2023-05-22T02:43:55.271Z,380.09
2023-05-22T02:44:55.719Z,380.09
2023-05-22T02:45:56.159Z,411.48
2023-05-22T02:46:56.612Z,411.48
2023-05-22T02:47:57.092Z,419.69
2023-05-22T02:48:57.470Z,419.69
2023-05-22T02:49:57.948Z,428.05
2023-05-22T02:50:58.349Z,419.69
2023-05-22T02:51:58.786Z,428.05
2023-05-22T02:52:59.252Z,419.69
2023-05-22T02:53:59.662Z,411.48
2023-05-22T02:55:00.135Z,419.69
2023-05-22T02:56:00.551Z,428.05
2023-05-22T02:57:00.984Z,419.69
2023-05-22T02:58:01.449Z,419.69
2023-05-22T02:59:01.862Z,428.05
2023-05-22T03:00:02.301Z,411.48
2023-05-22T03:01:02.742Z,411.48
2023-05-22T03:02:03.280Z,411.48
2023-05-22T03:03:03.690Z,419.69
2023-05-22T03:04:04.101Z,436.57
2023-05-22T03:05:04.499Z,411.48
2023-05-22T03:06:04.945Z,428.05
2023-05-22T03:07:05.383Z,419.69
2023-05-22T03:08:05.830Z,411.48
2023-05-22T03:09:06.258Z,411.48
2023-05-22T03:10:06.694Z,419.69
2023-05-22T03:11:07.135Z,419.69
2023-05-22T03:12:07.568Z,403.42
2023-05-22T03:13:08.030Z,403.42
2023-05-22T03:14:08.445Z,419.69
2023-05-22T03:15:08.887Z,419.69
2023-05-22T03:16:09.350Z,403.42
2023-05-22T03:17:09.759Z,411.48
2023-05-22T03:18:10.257Z,411.48
2023-05-22T03:19:10.693Z,419.69
2023-05-22T03:20:11.090Z,419.69
2023-05-22T03:21:11.518Z,419.69
2023-05-22T03:22:11.960Z,419.69
2023-05-22T03:23:12.415Z,445.23
2023-05-22T03:24:12.848Z,445.23
2023-05-22T03:25:13.278Z,428.05
2023-05-22T03:26:13.730Z,445.23
2023-05-22T03:27:14.148Z,445.23
2023-05-22T03:28:14.622Z,445.23
2023-05-22T03:29:15.128Z,436.57
2023-05-22T03:30:15.473Z,428.05
2023-05-22T03:31:15.905Z,436.57
2023-05-22T03:32:16.348Z,419.69
2023-05-22T03:33:16.858Z,428.05
2023-05-22T03:34:17.246Z,411.48
2023-05-22T03:35:17.662Z,419.69
2023-05-22T03:36:18.100Z,419.69
2023-05-22T03:37:18.545Z,419.69
2023-05-22T03:38:19.002Z,419.69
2023-05-22T03:39:19.428Z,419.69
2023-05-22T03:40:19.856Z,428.05
2023-05-22T03:41:20.291Z,419.69
2023-05-22T03:42:20.734Z,428.05
2023-05-22T03:43:21.219Z,436.57
2023-05-22T03:44:21.625Z,428.05
2023-05-22T03:45:22.069Z,419.69
2023-05-22T03:46:22.683Z,419.69
2023-05-22T03:47:22.972Z,419.69
2023-05-22T03:48:23.391Z,428.05
2023-05-22T03:49:23.809Z,419.69
2023-05-22T03:50:24.249Z,419.69
2023-05-22T03:51:24.678Z,403.42
2023-05-22T03:52:25.132Z,419.69
2023-05-22T03:53:25.589Z,403.42
2023-05-22T03:54:26.004Z,411.48
2023-05-22T03:55:26.439Z,428.05
2023-05-22T03:56:26.889Z,419.69
2023-05-22T03:57:27.313Z,411.48
2023-05-22T03:58:27.816Z,395.50
2023-05-22T03:59:28.194Z,411.48
2023-05-22T04:00:28.631Z,403.42
2023-05-22T04:01:29.070Z,419.69
2023-05-22T04:02:29.586Z,395.50
2023-05-22T04:03:30.072Z,403.42
2023-05-22T04:04:30.385Z,403.42
2023-05-22T04:05:30.876Z,419.69
2023-05-22T04:06:31.264Z,411.48
2023-05-22T04:07:31.701Z,411.48
2023-05-22T04:08:32.175Z,428.05
2023-05-22T04:09:32.588Z,419.69
2023-05-22T04:10:33.039Z,411.48
2023-05-22T04:11:33.462Z,411.48
2023-05-22T04:12:33.905Z,411.48
2023-05-22T04:13:34.366Z,411.48
2023-05-22T04:14:34.791Z,411.48
2023-05-22T04:15:35.247Z,454.06
2023-05-22T04:16:35.664Z,472.19
2023-05-22T04:17:36.136Z,520.47
2023-05-22T04:18:36.589Z,693.98
2023-05-22T04:19:37.016Z,693.98
2023-05-22T04:20:37.625Z,630.96
2023-05-22T04:21:37.862Z,720.79
2023-05-22T04:22:38.302Z,643.12
2023-05-22T04:23:38.789Z,630.96
2023-05-22T04:24:39.184Z,668.10
2023-05-22T04:25:39.628Z,520.47
2023-05-22T04:26:42.355Z,573.26
2023-05-22T04:27:40.506Z,584.40
2023-05-22T04:28:40.971Z,520.47
2023-05-22T04:29:41.387Z,530.66
2023-05-22T04:30:42.010Z,562.33
2023-05-22T04:31:42.382Z,551.58
2023-05-22T04:32:42.774Z,541.03
2023-05-22T04:33:43.166Z,500.64
2023-05-22T04:34:43.591Z,490.99
2023-05-22T04:35:44.027Z,472.19
2023-05-22T04:36:44.476Z,445.23
2023-05-22T04:37:44.923Z,436.57
2023-05-22T04:38:45.383Z,419.69
2023-05-22T04:39:45.789Z,419.69
2023-05-22T04:40:46.244Z,411.48
2023-05-22T04:41:46.683Z,411.48
2023-05-22T04:42:47.137Z,411.48
2023-05-22T04:43:47.579Z,403.42
2023-05-22T04:44:48.003Z,403.42
2023-05-22T04:45:48.455Z,403.42
2023-05-22T04:46:48.927Z,387.72
2023-05-22T04:47:49.379Z,380.09
2023-05-22T04:48:49.800Z,380.09
2023-05-22T04:49:50.209Z,387.72
2023-05-22T04:50:50.664Z,395.50
2023-05-22T04:51:51.089Z,372.59
2023-05-22T04:52:51.533Z,365.23
2023-05-22T04:53:52.072Z,380.09
2023-05-22T04:54:52.439Z,372.59
2023-05-22T04:55:52.863Z,372.59
2023-05-22T04:56:53.312Z,372.59
2023-05-22T04:57:53.745Z,365.23
2023-05-22T04:58:54.214Z,365.23
2023-05-22T04:59:54.629Z,358.00
2023-05-22T05:00:55.093Z,358.00
2023-05-22T05:01:55.514Z,365.23
2023-05-22T05:02:55.966Z,358.00
2023-05-22T05:03:56.450Z,365.23
2023-05-22T05:04:56.845Z,350.90
2023-05-22T05:05:57.282Z,358.00
2023-05-22T05:06:57.734Z,372.59
2023-05-22T05:07:58.172Z,358.00
2023-05-22T05:08:58.643Z,358.00
2023-05-22T05:09:59.062Z,358.00
2023-05-22T05:10:59.506Z,358.00
2023-05-22T05:11:59.979Z,350.90
2023-05-22T05:13:00.396Z,358.00
2023-05-22T05:14:00.859Z,358.00
2023-05-22T05:15:01.298Z,350.90
2023-05-22T05:16:01.754Z,358.00
2023-05-22T05:17:02.233Z,358.00
2023-05-22T05:18:02.661Z,358.00
2023-05-22T05:19:03.140Z,365.23
2023-05-22T05:20:03.517Z,365.23
2023-05-22T05:21:03.947Z,365.23
2023-05-22T05:22:04.388Z,372.59
2023-05-22T05:23:04.835Z,350.90
2023-05-22T05:24:05.303Z,365.23
2023-05-22T05:25:05.743Z,372.59
2023-05-22T05:26:06.175Z,372.59
2023-05-22T05:27:06.618Z,372.59
2023-05-22T05:28:07.058Z,365.23
2023-05-22T05:29:07.533Z,365.23
2023-05-22T05:30:07.956Z,358.00
2023-05-22T05:31:08.406Z,365.23
2023-05-22T05:32:08.868Z,365.23
2023-05-22T05:33:09.306Z,372.59
2023-05-22T05:34:09.767Z,380.09
2023-05-22T05:35:10.190Z,380.09
2023-05-22T05:36:10.641Z,380.09
2023-05-22T05:37:11.083Z,372.59
2023-05-22T05:38:11.518Z,380.09
2023-05-22T05:39:11.993Z,372.59
2023-05-22T05:40:12.409Z,365.23
2023-05-22T05:41:12.862Z,365.23
2023-05-22T05:42:13.311Z,365.23
2023-05-22T05:43:13.759Z,380.09
2023-05-22T05:44:14.230Z,365.23
2023-05-22T05:45:14.654Z,387.72
2023-05-22T05:46:15.124Z,380.09
2023-05-22T05:47:15.540Z,403.42
2023-05-22T05:48:15.985Z,387.72
2023-05-22T05:49:16.458Z,395.50
2023-05-22T05:50:16.877Z,387.72
2023-05-22T05:51:17.332Z,380.09
2023-05-22T05:52:17.777Z,380.09
2023-05-22T05:53:18.223Z,387.72
2023-05-22T05:54:18.701Z,395.50
2023-05-22T05:55:19.131Z,387.72
2023-05-22T05:56:19.560Z,387.72
2023-05-22T05:57:20.024Z,387.72
2023-05-22T05:58:20.462Z,403.42
2023-05-22T05:59:20.931Z,395.50
2023-05-22T06:00:21.356Z,403.42
2023-05-22T06:01:21.801Z,411.48
2023-05-22T06:02:22.355Z,403.42
2023-05-22T06:03:22.737Z,403.42
2023-05-22T06:04:23.162Z,411.48
2023-05-22T06:05:23.674Z,403.42
2023-05-22T06:06:24.039Z,403.42
2023-05-22T06:07:24.556Z,403.42
2023-05-22T06:08:24.935Z,380.09
2023-05-22T06:09:25.422Z,395.50
2023-05-22T06:10:25.840Z,395.50
2023-05-22T06:11:26.293Z,403.42
2023-05-22T06:12:26.726Z,411.48
2023-05-22T06:13:27.187Z,411.48
2023-05-22T06:14:27.654Z,411.48
2023-05-22T06:15:28.076Z,419.69
2023-05-22T06:16:28.552Z,387.72
2023-05-22T06:17:28.993Z,387.72
2023-05-22T06:18:29.420Z,411.48
2023-05-22T06:19:30.048Z,419.69
2023-05-22T06:20:30.315Z,419.69
2023-05-22T06:21:30.767Z,411.48
2023-05-22T06:22:31.213Z,436.57
2023-05-22T06:23:31.664Z,411.48
2023-05-22T06:24:32.138Z,428.05
2023-05-22T06:25:32.564Z,419.69
2023-05-22T06:26:33.014Z,403.42
2023-05-22T06:27:33.463Z,395.50
2023-05-22T06:28:33.902Z,411.48
2023-05-22T06:29:34.384Z,403.42
2023-05-22T06:30:39.989Z,428.05
2023-05-22T06:31:35.305Z,419.69
2023-05-22T06:32:35.950Z,419.69
2023-05-22T06:33:36.250Z,428.05
2023-05-22T06:34:36.634Z,428.05
2023-05-22T06:35:37.059Z,436.57
2023-05-22T06:36:37.529Z,445.23
2023-05-22T06:37:37.951Z,436.57
2023-05-22T06:38:38.409Z,411.48
2023-05-22T06:39:38.890Z,445.23
2023-05-22T06:40:39.585Z,481.50
2023-05-22T06:41:39.751Z,436.57
2023-05-22T06:42:40.198Z,411.48
2023-05-22T06:43:40.653Z,411.48
2023-05-22T06:44:41.139Z,463.04
2023-05-22T06:45:41.586Z,445.23
2023-05-22T06:46:42.007Z,411.48
2023-05-22T06:47:42.490Z,403.42
2023-05-22T06:48:42.908Z,395.50
2023-05-22T06:49:43.376Z,403.42
2023-05-22T06:50:43.803Z,419.69
2023-05-22T06:51:44.254Z,419.69
2023-05-22T06:52:44.707Z,403.42
2023-05-22T06:53:45.161Z,403.42
2023-05-22T06:54:45.631Z,419.69
2023-05-22T06:55:46.079Z,395.50
2023-05-22T06:56:46.507Z,403.42
2023-05-22T06:57:46.962Z,428.05
2023-05-22T06:58:47.424Z,411.48
2023-05-22T06:59:47.897Z,403.42
2023-05-22T07:00:48.349Z,395.50
2023-05-22T07:01:48.872Z,403.42
2023-05-22T07:02:49.267Z,395.50
2023-05-22T07:03:49.674Z,395.50
2023-05-22T07:04:50.153Z,395.50
2023-05-22T07:05:50.603Z,395.50
2023-05-22T07:06:51.018Z,387.72
2023-05-22T07:07:51.477Z,395.50
2023-05-22T07:08:51.924Z,403.42
2023-05-22T07:09:52.404Z,387.72
2023-05-22T07:10:52.826Z,380.09
2023-05-22T07:11:53.284Z,380.09
2023-05-22T07:12:53.735Z,403.42
2023-05-22T07:13:54.193Z,436.57
2023-05-22T07:14:54.691Z,395.50
2023-05-22T07:15:55.092Z,387.72
2023-05-22T07:16:55.556Z,387.72
2023-05-22T07:17:56.080Z,387.72
2023-05-22T07:18:56.532Z,387.72
2023-05-22T07:19:56.953Z,395.50
2023-05-22T07:20:57.354Z,395.50
2023-05-22T07:21:57.810Z,387.72
2023-05-22T07:22:58.524Z,380.09
2023-05-22T07:23:58.717Z,387.72
2023-05-22T07:24:59.206Z,372.59
2023-05-22T07:25:59.637Z,387.72
2023-05-22T07:27:00.111Z,380.09
2023-05-22T07:28:00.536Z,380.09
2023-05-22T07:29:00.986Z,419.69
2023-05-22T07:30:01.471Z,419.69
2023-05-22T07:31:01.911Z,395.50
2023-05-22T07:32:02.404Z,395.50
2023-05-22T07:33:02.837Z,380.09
2023-05-22T07:34:03.264Z,387.72
2023-05-22T07:35:03.748Z,395.50
2023-05-22T07:36:04.178Z,387.72
2023-05-22T07:37:04.640Z,380.09
2023-05-22T07:38:05.110Z,387.72
2023-05-22T07:39:05.641Z,395.50
2023-05-22T07:40:06.043Z,419.69
2023-05-22T07:41:06.477Z,403.42
2023-05-22T07:42:06.973Z,436.57
2023-05-22T07:43:07.401Z,395.50
2023-05-22T07:44:07.891Z,419.69
2023-05-22T07:45:08.341Z,411.48
2023-05-22T07:46:08.808Z,403.42
2023-05-22T07:47:09.247Z,403.42
2023-05-22T07:48:09.807Z,387.72
2023-05-22T07:49:10.172Z,403.42
2023-05-22T07:50:10.652Z,395.50
2023-05-22T07:51:11.137Z,395.50
2023-05-22T07:52:11.565Z,395.50
2023-05-22T07:53:12.007Z,403.42
2023-05-22T07:54:12.464Z,380.09
2023-05-22T07:55:12.955Z,380.09
2023-05-22T07:56:13.424Z,387.72
2023-05-22T07:57:13.852Z,387.72
2023-05-22T07:58:14.322Z,411.48
2023-05-22T07:59:14.781Z,428.05
2023-05-22T08:00:15.279Z,395.50
2023-05-22T08:01:15.761Z,403.42
2023-05-22T08:02:16.241Z,395.50
2023-05-22T08:03:17.526Z,387.72
2023-05-22T08:04:17.288Z,395.50
2023-05-22T08:05:17.613Z,387.72
2023-05-22T08:06:18.020Z,403.42
2023-05-22T08:07:18.477Z,387.72
2023-05-22T08:08:18.928Z,387.72
2023-05-22T08:09:19.388Z,387.72
2023-05-22T08:10:19.874Z,380.09
2023-05-22T08:11:20.318Z,380.09
2023-05-22T08:12:20.767Z,387.72
2023-05-22T08:13:21.229Z,395.50
2023-05-22T08:14:21.701Z,387.72
2023-05-22T08:15:22.187Z,380.09
2023-05-22T08:16:22.698Z,387.72
2023-05-22T08:17:23.163Z,380.09
2023-05-22T08:18:23.546Z,387.72
2023-05-22T08:19:24.205Z,387.72
2023-05-22T08:20:24.553Z,387.72
2023-05-22T08:21:24.956Z,380.09
2023-05-22T08:22:25.408Z,380.09
2023-05-22T08:23:25.870Z,372.59
2023-05-22T08:24:26.331Z,380.09
2023-05-22T08:25:26.825Z,395.50
2023-05-22T08:26:27.253Z,380.09
2023-05-22T08:27:27.733Z,387.72
2023-05-22T08:28:28.186Z,380.09
2023-05-22T08:29:28.654Z,411.48
2023-05-22T08:30:29.143Z,472.19
2023-05-22T08:31:29.746Z,428.05
2023-05-22T08:32:31.380Z,428.05
2023-05-22T08:33:30.529Z,428.05
2023-05-22T08:34:30.989Z,463.04
2023-05-22T08:35:31.483Z,445.23
2023-05-22T08:36:31.925Z,436.57
2023-05-22T08:37:32.395Z,419.69
2023-05-22T08:38:32.868Z,411.48
2023-05-22T08:39:33.324Z,411.48
2023-05-22T08:40:33.819Z,419.69
2023-05-22T08:41:34.258Z,428.05
2023-05-22T08:42:34.722Z,419.69
2023-05-22T08:43:35.192Z,419.69
2023-05-22T08:44:35.804Z,445.23
2023-05-22T08:45:36.157Z,428.05
2023-05-22T08:46:36.645Z,428.05
2023-05-22T08:47:37.149Z,419.69
2023-05-22T08:48:37.526Z,428.05
2023-05-22T08:49:38.002Z,428.05
2023-05-22T08:50:38.705Z,419.69
2023-05-22T08:51:38.927Z,419.69
2023-05-22T08:52:39.390Z,419.69
2023-05-22T08:53:39.868Z,419.69
2023-05-22T08:54:40.329Z,419.69
2023-05-22T08:55:40.844Z,411.48
2023-05-22T08:56:52.853Z,428.05
2023-05-22T08:57:41.747Z,411.48
2023-05-22T08:58:42.215Z,411.48
2023-05-22T08:59:42.686Z,411.48
2023-05-22T09:00:43.428Z,436.57
2023-05-22T09:01:43.758Z,436.57
2023-05-22T09:02:44.149Z,436.57
2023-05-22T09:03:44.657Z,428.05
2023-05-22T09:04:45.044Z,436.57
2023-05-22T09:05:45.594Z,436.57
2023-05-22T09:06:45.986Z,445.23
2023-05-22T09:07:46.463Z,445.23
2023-05-22T09:08:47.555Z,436.57
2023-05-22T09:09:47.424Z,436.57
2023-05-22T09:10:47.923Z,562.33
2023-05-22T09:11:48.374Z,530.66
2023-05-22T09:12:48.819Z,463.04
2023-05-22T09:13:49.300Z,463.04
2023-05-22T09:14:49.761Z,454.06
2023-05-22T09:15:50.259Z,436.57
2023-05-22T09:16:50.741Z,436.57
2023-05-22T09:17:51.209Z,463.04
2023-05-22T09:18:51.673Z,490.99
2023-05-22T09:19:52.115Z,463.04
2023-05-22T09:20:52.598Z,481.50
2023-05-22T09:21:53.071Z,481.50
2023-05-22T09:22:53.520Z,481.50
2023-05-22T09:23:54.121Z,472.19
2023-05-22T09:24:54.468Z,584.40
2023-05-22T09:25:54.977Z,595.73
2023-05-22T09:26:55.404Z,530.66
2023-05-22T09:27:55.880Z,510.47
2023-05-22T09:28:56.361Z,490.99
2023-05-22T09:29:56.860Z,490.99
2023-05-22T09:30:57.375Z,472.19
2023-05-22T09:31:57.799Z,607.26
2023-05-22T09:32:58.311Z,541.03
2023-05-22T09:33:58.731Z,472.19
2023-05-22T09:34:59.197Z,463.04
2023-05-22T09:35:59.692Z,463.04
2023-05-22T09:37:00.143Z,463.04
2023-05-22T09:38:00.621Z,445.23
2023-05-22T09:39:01.088Z,445.23
2023-05-22T09:40:01.563Z,472.19
2023-05-22T09:41:02.060Z,573.26
2023-05-22T09:42:02.522Z,510.47
2023-05-22T09:43:02.985Z,510.47
2023-05-22T09:44:03.464Z,562.33
2023-05-22T09:45:03.952Z,510.47
2023-05-22T09:46:04.527Z,481.50
2023-05-22T09:47:04.888Z,472.19
2023-05-22T09:48:05.429Z,454.06
2023-05-22T09:49:05.846Z,445.23
2023-05-22T09:50:06.375Z,445.23
2023-05-22T09:51:06.821Z,436.57
2023-05-22T09:52:07.288Z,490.99
2023-05-22T09:53:07.766Z,436.57
2023-05-22T09:54:08.230Z,445.23
2023-05-22T09:55:08.781Z,530.66
2023-05-22T09:56:09.202Z,454.06
2023-05-22T09:57:09.658Z,445.23
2023-05-22T09:58:10.130Z,445.23
2023-05-22T09:59:10.606Z,500.64
2023-05-22T10:00:11.094Z,481.50
2023-05-22T10:01:11.577Z,520.47
2023-05-22T10:02:12.072Z,520.47
2023-05-22T10:03:12.576Z,510.47
2023-05-22T10:04:13.093Z,500.64
2023-05-22T10:05:13.470Z,520.47
2023-05-22T10:06:13.981Z,520.47
2023-05-22T10:07:14.432Z,562.33
2023-05-22T10:08:14.908Z,520.47
2023-05-22T10:09:16.858Z,595.73
2023-05-22T10:10:15.872Z,490.99
2023-05-22T10:11:16.372Z,530.66
2023-05-22T10:12:16.820Z,551.58
2023-05-22T10:13:17.299Z,510.47
2023-05-22T10:14:17.772Z,541.03
2023-05-22T10:15:18.259Z,562.33
2023-05-22T10:16:18.786Z,520.47
2023-05-22T10:17:19.218Z,530.66
2023-05-22T10:18:19.688Z,584.40
2023-05-22T10:19:20.253Z,541.03
2023-05-22T10:20:20.688Z,541.03
2023-05-22T10:21:21.152Z,500.64
2023-05-22T10:22:21.600Z,490.99
2023-05-22T10:23:22.917Z,490.99
2023-05-22T10:24:22.591Z,463.04
2023-05-22T10:25:23.046Z,481.50
2023-05-22T10:26:23.539Z,472.19
2023-05-22T10:27:24.006Z,454.06
2023-05-22T10:28:24.479Z,436.57
2023-05-22T10:29:24.956Z,436.57
2023-05-22T10:30:25.436Z,436.57
2023-05-22T10:31:26.189Z,436.57
2023-05-22T10:32:26.417Z,436.57
2023-05-22T10:33:26.879Z,436.57
2023-05-22T10:34:27.336Z,481.50
2023-05-22T10:35:27.815Z,541.03
2023-05-22T10:36:28.309Z,463.04
2023-05-22T10:37:28.761Z,520.47
2023-05-22T10:38:29.248Z,510.47
2023-05-22T10:39:29.724Z,490.99
2023-05-22T10:40:30.192Z,472.19
2023-05-22T10:41:30.686Z,481.50
2023-05-22T10:42:31.157Z,463.04
2023-05-22T10:43:31.646Z,463.04
2023-05-22T10:44:32.089Z,436.57
2023-05-22T10:45:32.805Z,454.06
2023-05-22T10:46:33.114Z,445.23
2023-05-22T10:47:33.685Z,445.23
2023-05-22T10:48:33.985Z,445.23
2023-05-22T10:49:34.465Z,436.57
2023-05-22T10:50:34.938Z,436.57
2023-05-22T10:51:35.441Z,454.06
2023-05-22T10:52:35.895Z,428.05
2023-05-22T10:53:36.376Z,419.69
2023-05-22T10:54:36.861Z,428.05
2023-05-22T10:55:37.326Z,428.05
2023-05-22T10:56:37.827Z,436.57
2023-05-22T10:57:38.277Z,436.57
2023-05-22T10:58:38.840Z,573.26
2023-05-22T10:59:39.241Z,619.01
2023-05-22T11:00:39.881Z,562.33
2023-05-22T11:01:40.286Z,490.99
2023-05-22T11:02:40.741Z,481.50
2023-05-22T11:03:41.168Z,551.58
2023-05-22T11:04:41.750Z,500.64
2023-05-22T11:05:42.116Z,490.99
2023-05-22T11:06:42.784Z,551.58
2023-05-22T11:07:43.088Z,481.50
2023-05-22T11:08:43.563Z,530.66
2023-05-22T11:09:44.101Z,500.64
2023-05-22T11:10:44.515Z,490.99
2023-05-22T11:11:45.018Z,481.50
2023-05-22T11:12:45.480Z,463.04
2023-05-22T11:13:45.954Z,454.06
2023-05-22T11:14:46.437Z,445.23
2023-05-22T11:15:46.912Z,445.23
2023-05-22T11:16:47.455Z,419.69
2023-05-22T11:17:47.902Z,428.05
2023-05-22T11:18:48.376Z,463.04
2023-05-22T11:19:48.898Z,445.23
2023-05-22T11:20:49.309Z,428.05
2023-05-22T11:21:49.816Z,419.69
2023-05-22T11:22:50.268Z,411.48
2023-05-22T11:23:50.756Z,445.23
2023-05-22T11:24:51.241Z,445.23
2023-05-22T11:25:51.710Z,541.03
2023-05-22T11:26:52.213Z,454.06
2023-05-22T11:27:52.666Z,530.66
2023-05-22T11:28:53.153Z,490.99
2023-05-22T11:29:53.624Z,481.50
2023-05-22T11:30:54.136Z,481.50
2023-05-22T11:31:54.624Z,472.19
2023-05-22T11:32:55.104Z,481.50
2023-05-22T11:33:55.554Z,481.50
2023-05-22T11:34:56.030Z,490.99
2023-05-22T11:35:56.505Z,481.50
2023-05-22T11:36:57.017Z,481.50
2023-05-22T11:37:57.464Z,472.19
2023-05-22T11:38:57.947Z,445.23
2023-05-22T11:39:58.446Z,463.04
2023-05-22T11:40:58.911Z,463.04
2023-05-22T11:41:59.408Z,472.19
2023-05-22T11:42:59.886Z,472.19
2023-05-22T11:44:00.337Z,463.04
2023-05-22T11:45:00.825Z,428.05
2023-05-22T11:46:01.301Z,445.23
2023-05-22T11:47:01.801Z,445.23
2023-05-22T11:48:02.280Z,436.57
2023-05-22T11:49:02.735Z,445.23
2023-05-22T11:50:03.217Z,472.19
2023-05-22T11:51:03.692Z,481.50
2023-05-22T11:52:04.202Z,520.47
2023-05-22T11:53:04.657Z,463.04
2023-05-22T11:54:05.130Z,472.19
2023-05-22T11:55:05.741Z,463.04
2023-05-22T11:56:06.081Z,454.06
2023-05-22T11:57:06.585Z,454.06
2023-05-22T11:58:07.032Z,490.99
2023-05-22T11:59:07.499Z,454.06
2023-05-22T12:00:08.030Z,445.23
2023-05-22T12:01:08.459Z,463.04
2023-05-22T12:02:08.965Z,445.23
2023-05-22T12:03:09.464Z,454.06
2023-05-22T12:04:09.932Z,472.19
2023-05-22T12:05:10.355Z,530.66
2023-05-22T12:06:10.880Z,530.66
2023-05-22T12:07:11.332Z,551.58
2023-05-22T12:08:11.793Z,530.66
2023-05-22T12:09:12.266Z,541.03
2023-05-22T12:10:12.817Z,541.03
2023-05-22T12:11:13.223Z,530.66
2023-05-22T12:12:13.738Z,530.66
2023-05-22T12:13:14.182Z,500.64
2023-05-22T12:14:14.665Z,490.99
2023-05-22T12:15:15.139Z,472.19
2023-05-22T12:16:15.665Z,472.19
2023-05-22T12:17:16.125Z,463.04
2023-05-22T12:18:16.578Z,454.06
2023-05-22T12:19:17.109Z,463.04
2023-05-22T12:20:17.538Z,454.06
2023-05-22T12:21:18.016Z,454.06
2023-05-22T12:22:18.520Z,454.06
2023-05-22T12:23:18.971Z,419.69
2023-05-22T12:24:19.458Z,428.05
2023-05-22T12:25:19.957Z,428.05
2023-05-22T12:26:20.415Z,445.23
2023-05-22T12:27:20.909Z,445.23
2023-05-22T12:28:21.366Z,419.69
2023-05-22T12:29:21.842Z,419.69
2023-05-22T12:30:22.328Z,436.57
2023-05-22T12:31:22.798Z,445.23
2023-05-22T12:32:23.365Z,454.06
2023-05-22T12:33:23.753Z,445.23
2023-05-22T12:34:24.241Z,530.66